createdAt,value
2018-06-28T00:00:45.826Z,100865
2018-06-28T00:01:50.427Z,100862
2018-06-28T00:02:55.302Z,100862
2018-06-28T00:04:00.841Z,100868
2018-06-28T00:05:05.162Z,100853
2018-06-28T00:06:10.675Z,100868
2018-06-28T00:07:16.440Z,100868
2018-06-28T00:08:21.607Z,100859
2018-06-28T00:09:26.770Z,100868
2018-06-28T00:10:31.946Z,100859
2018-06-28T00:11:36.558Z,100856
2018-06-28T00:12:42.352Z,100865
2018-06-28T00:13:47.519Z,100859
2018-06-28T00:14:52.675Z,100853
2018-06-28T00:15:58.369Z,100859
2018-06-28T00:17:03.540Z,100862
2018-06-28T00:18:08.960Z,100853
2018-06-28T00:19:14.121Z,100862
2018-06-28T00:20:19.560Z,100856
2018-06-28T00:21:25.966Z,100862
2018-06-28T00:22:31.404Z,100865
2018-06-28T00:23:36.284Z,100862
2018-06-28T00:24:41.428Z,100862
2018-06-28T00:25:46.315Z,100865
2018-06-28T00:26:51.481Z,100865
2018-06-28T00:27:56.897Z,100862
2018-06-28T00:29:01.512Z,100859
2018-06-28T00:30:05.849Z,100856
2018-06-28T00:31:10.981Z,100859
2018-06-28T00:32:16.139Z,100868
2018-06-28T00:33:21.587Z,100862
2018-06-28T00:34:27.529Z,100862
2018-06-28T00:35:32.975Z,100859
2018-06-28T00:36:38.807Z,100859
2018-06-28T00:37:44.246Z,100859
2018-06-28T00:38:49.142Z,100859
2018-06-28T00:39:54.268Z,100862
2018-06-28T00:40:59.124Z,100868
2018-06-28T00:42:04.292Z,100859
2018-06-28T00:43:09.531Z,100862
2018-06-28T00:44:14.718Z,100868
2018-06-28T00:45:19.603Z,100868
2018-06-28T00:46:25.442Z,100865
2018-06-28T00:47:30.924Z,100870
2018-06-28T00:48:36.155Z,100865
2018-06-28T00:49:41.605Z,100868
2018-06-28T00:50:47.045Z,100865
2018-06-28T00:51:52.315Z,100865
2018-06-28T00:52:57.754Z,100870
2018-06-28T00:54:02.621Z,100868
2018-06-28T00:55:08.137Z,100873
2018-06-28T00:56:13.294Z,100868
2018-06-28T00:57:18.739Z,100870
2018-06-28T00:58:24.143Z,100873
2018-06-28T00:59:29.035Z,100865
2018-06-28T01:00:34.482Z,100865
2018-06-28T01:01:39.655Z,100873
2018-06-28T01:02:44.557Z,100859
2018-06-28T01:03:50.280Z,100865
2018-06-28T01:04:55.164Z,100859
2018-06-28T01:06:00.350Z,100873
2018-06-28T01:07:06.143Z,100853
2018-06-28T01:08:11.593Z,100870
2018-06-28T01:09:17.029Z,100865
2018-06-28T01:10:22.725Z,100862
2018-06-28T01:11:27.881Z,100862
2018-06-28T01:12:33.104Z,100868
2018-06-28T01:13:38.263Z,100865
2018-06-28T01:14:43.702Z,100859
2018-06-28T01:15:49.128Z,100862
2018-06-28T01:16:54.288Z,100859
2018-06-28T01:17:59.447Z,100847
2018-06-28T01:19:05.297Z,100862
2018-06-28T01:20:10.744Z,100870
2018-06-28T01:21:15.920Z,100862
2018-06-28T01:22:21.648Z,100859
2018-06-28T01:23:26.523Z,100873
2018-06-28T01:24:31.754Z,100862
2018-06-28T01:25:36.339Z,100856
2018-06-28T01:26:41.787Z,100859
2018-06-28T01:27:47.641Z,100859
2018-06-28T01:28:52.515Z,100862
2018-06-28T01:29:57.392Z,100859
2018-06-28T01:31:02.809Z,100862
2018-06-28T01:32:07.702Z,100865
2018-06-28T01:33:13.141Z,100862
2018-06-28T01:34:18.658Z,100859
2018-06-28T01:35:24.118Z,100868
2018-06-28T01:36:29.896Z,100865
2018-06-28T01:37:35.063Z,100862
2018-06-28T01:38:39.936Z,100856
2018-06-28T01:39:45.748Z,100865
2018-06-28T01:40:50.898Z,100865
2018-06-28T01:41:55.790Z,100856
2018-06-28T01:43:01.356Z,100865
2018-06-28T01:44:05.953Z,100865
2018-06-28T01:45:11.423Z,100865
2018-06-28T01:46:16.978Z,100868
2018-06-28T01:47:22.395Z,100853
2018-06-28T01:48:27.540Z,100850
2018-06-28T01:49:32.987Z,100859
2018-06-28T01:50:38.156Z,100865
2018-06-28T01:51:43.094Z,100859
2018-06-28T01:52:48.539Z,100859
2018-06-28T01:53:53.990Z,100859
2018-06-28T01:54:59.410Z,100856
2018-06-28T01:56:04.854Z,100862
2018-06-28T01:57:10.016Z,100862
2018-06-28T01:58:15.601Z,100862
2018-06-28T01:59:20.471Z,100865
2018-06-28T02:00:40.817Z,100865
2018-06-28T02:01:45.968Z,100850
2018-06-28T02:02:51.456Z,100865
2018-06-28T02:03:57.006Z,100862
2018-06-28T02:05:02.190Z,100865
2018-06-28T02:06:06.494Z,100859
2018-06-28T02:07:12.207Z,100856
2018-06-28T02:08:17.359Z,100856
2018-06-28T02:09:22.820Z,100862
2018-06-28T02:10:27.884Z,100850
2018-06-28T02:11:32.833Z,100850
2018-06-28T02:12:38.251Z,100856
2018-06-28T02:13:43.685Z,100862
2018-06-28T02:14:48.861Z,100856
2018-06-28T02:15:54.371Z,100850
2018-06-28T02:16:59.817Z,100862
2018-06-28T02:18:05.258Z,100859
2018-06-28T02:19:10.800Z,100850
2018-06-28T02:20:16.448Z,100856
2018-06-28T02:21:21.908Z,100862
2018-06-28T02:22:27.690Z,100862
2018-06-28T02:23:33.140Z,100856
2018-06-28T02:24:38.551Z,100862
2018-06-28T02:25:43.446Z,100859
2018-06-28T02:26:48.889Z,100856
2018-06-28T02:27:54.409Z,100859
2018-06-28T02:28:59.570Z,100862
2018-06-28T02:30:04.467Z,100859
2018-06-28T02:31:09.608Z,100850
2018-06-28T02:32:14.487Z,100847
2018-06-28T02:33:19.095Z,100856
2018-06-28T02:34:24.522Z,100853
2018-06-28T02:35:29.718Z,100862
2018-06-28T02:36:35.444Z,100862
2018-06-28T02:37:40.622Z,100862
2018-06-28T02:38:46.090Z,100850
2018-06-28T02:39:51.506Z,100856
2018-06-28T02:40:56.094Z,100847
2018-06-28T02:42:01.028Z,100847
2018-06-28T02:43:05.863Z,100839
2018-06-28T02:44:11.321Z,100844
2018-06-28T02:45:16.250Z,100844
2018-06-28T02:46:21.512Z,100850
2018-06-28T02:47:26.955Z,100850
2018-06-28T02:48:32.794Z,100844
2018-06-28T02:49:38.270Z,100847
2018-06-28T02:50:43.713Z,100856
2018-06-28T02:51:49.130Z,100834
2018-06-28T02:52:53.723Z,100836
2018-06-28T02:53:58.888Z,100839
2018-06-28T02:55:04.289Z,100847
2018-06-28T02:56:09.458Z,100839
2018-06-28T02:57:14.642Z,100853
2018-06-28T02:58:20.039Z,100853
2018-06-28T02:59:25.202Z,100847
2018-06-28T03:00:30.069Z,100847
2018-06-28T03:01:34.970Z,100853
2018-06-28T03:02:40.410Z,100862
2018-06-28T03:03:46.112Z,100859
2018-06-28T03:04:51.267Z,100864
2018-06-28T03:05:56.147Z,100862
2018-06-28T03:07:01.429Z,100862
2018-06-28T03:08:06.057Z,100862
2018-06-28T03:09:11.228Z,100850
2018-06-28T03:10:16.336Z,100853
2018-06-28T03:11:21.501Z,100859
2018-06-28T03:12:27.162Z,100859
2018-06-28T03:13:32.333Z,100853
2018-06-28T03:14:37.490Z,100853
2018-06-28T03:15:42.890Z,100853
2018-06-28T03:16:47.487Z,100853
2018-06-28T03:17:52.644Z,100853
2018-06-28T03:18:57.870Z,100844
2018-06-28T03:20:03.023Z,100861
2018-06-28T03:21:07.339Z,100853
2018-06-28T03:22:12.290Z,100864
2018-06-28T03:23:17.735Z,100856
2018-06-28T03:24:22.614Z,100856
2018-06-28T03:25:28.323Z,100861
2018-06-28T03:26:33.209Z,100861
2018-06-28T03:27:38.885Z,100861
2018-06-28T03:28:44.324Z,100850
2018-06-28T03:29:49.766Z,100864
2018-06-28T03:30:55.231Z,100858
2018-06-28T03:32:00.855Z,100858
2018-06-28T03:33:05.478Z,100856
2018-06-28T03:34:11.269Z,100858
2018-06-28T03:35:16.161Z,100858
2018-06-28T03:36:20.752Z,100867
2018-06-28T03:37:41.414Z,100864
2018-06-28T03:38:47.177Z,100858
2018-06-28T03:39:52.917Z,100856
2018-06-28T03:40:58.340Z,100861
2018-06-28T03:42:03.792Z,100861
2018-06-28T03:43:08.638Z,100856
2018-06-28T03:44:13.521Z,100856
2018-06-28T03:45:18.392Z,100856
2018-06-28T03:46:24.087Z,100861
2018-06-28T03:47:29.532Z,100853
2018-06-28T03:48:35.042Z,100861
2018-06-28T03:49:40.490Z,100867
2018-06-28T03:50:45.389Z,100853
2018-06-28T03:51:50.957Z,100858
2018-06-28T03:52:56.395Z,100858
2018-06-28T03:54:01.272Z,100864
2018-06-28T03:55:06.413Z,100867
2018-06-28T03:56:11.321Z,100870
2018-06-28T03:57:16.796Z,100870
2018-06-28T03:58:22.503Z,100867
2018-06-28T03:59:27.681Z,100867
2018-06-28T04:00:33.200Z,100861
2018-06-28T04:01:38.654Z,100864
2018-06-28T04:02:44.106Z,100864
2018-06-28T04:03:49.245Z,100870
2018-06-28T04:04:54.699Z,100864
2018-06-28T04:06:00.151Z,100870
2018-06-28T04:07:05.811Z,100861
2018-06-28T04:08:11.280Z,100858
2018-06-28T04:09:16.445Z,100864
2018-06-28T04:10:22.139Z,100861
2018-06-28T04:11:27.288Z,100864
2018-06-28T04:12:32.844Z,100870
2018-06-28T04:13:37.463Z,100861
2018-06-28T04:14:42.615Z,100861
2018-06-28T04:15:48.719Z,100876
2018-06-28T04:16:54.158Z,100864
2018-06-28T04:17:59.329Z,100867
2018-06-28T04:19:04.671Z,100870
2018-06-28T04:20:09.840Z,100870
2018-06-28T04:21:15.293Z,100867
2018-06-28T04:22:21.128Z,100873
2018-06-28T04:23:26.273Z,100867
2018-06-28T04:24:31.678Z,100870
2018-06-28T04:25:36.579Z,100867
2018-06-28T04:26:41.168Z,100870
2018-06-28T04:27:46.862Z,100870
2018-06-28T04:28:52.024Z,100873
2018-06-28T04:29:57.489Z,100870
2018-06-28T04:31:02.995Z,100873
2018-06-28T04:32:08.444Z,100876
2018-06-28T04:33:13.992Z,100879
2018-06-28T04:34:19.444Z,100879
2018-06-28T04:35:24.901Z,100873
2018-06-28T04:36:30.179Z,100867
2018-06-28T04:37:35.340Z,100873
2018-06-28T04:38:39.386Z,100873
2018-06-28T04:39:44.801Z,100873
2018-06-28T04:40:50.256Z,100884
2018-06-28T04:41:54.870Z,100870
2018-06-28T04:43:00.038Z,100867
2018-06-28T04:44:05.501Z,100867
2018-06-28T04:45:10.381Z,100876
2018-06-28T04:46:16.099Z,100876
2018-06-28T04:47:21.279Z,100873
2018-06-28T04:48:26.909Z,100867
2018-06-28T04:49:32.064Z,100873
2018-06-28T04:50:37.522Z,100876
2018-06-28T04:51:43.099Z,100870
2018-06-28T04:52:48.292Z,100870
2018-06-28T04:53:53.465Z,100876
2018-06-28T04:54:58.865Z,100870
2018-06-28T04:56:04.310Z,100867
2018-06-28T04:57:09.188Z,100867
2018-06-28T04:58:14.759Z,100867
2018-06-28T04:59:19.916Z,100861
2018-06-28T05:00:25.659Z,100864
2018-06-28T05:01:30.266Z,100870
2018-06-28T05:02:35.424Z,100864
2018-06-28T05:03:40.855Z,100867
2018-06-28T05:04:46.016Z,100864
2018-06-28T05:05:51.466Z,100867
2018-06-28T05:06:56.442Z,100867
2018-06-28T05:08:01.888Z,100879
2018-06-28T05:09:06.491Z,100879
2018-06-28T05:10:11.827Z,100876
2018-06-28T05:11:17.290Z,100879
2018-06-28T05:12:22.654Z,100867
2018-06-28T05:13:28.357Z,100876
2018-06-28T05:14:33.808Z,100876
2018-06-28T05:15:39.319Z,100873
2018-06-28T05:16:44.502Z,100867
2018-06-28T05:17:49.952Z,100858
2018-06-28T05:18:55.938Z,100870
2018-06-28T05:20:01.086Z,100867
2018-06-28T05:21:05.673Z,100867
2018-06-28T05:22:11.187Z,100870
2018-06-28T05:23:16.865Z,100870
2018-06-28T05:24:22.190Z,100861
2018-06-28T05:25:27.426Z,100870
2018-06-28T05:26:32.893Z,100855
2018-06-28T05:27:38.743Z,100870
2018-06-28T05:28:43.896Z,100847
2018-06-28T05:29:49.066Z,100864
2018-06-28T05:30:54.189Z,100861
2018-06-28T05:31:59.349Z,100867
2018-06-28T05:33:04.533Z,100858
2018-06-28T05:34:09.987Z,100861
2018-06-28T05:35:15.448Z,100864
2018-06-28T05:36:20.643Z,100858
2018-06-28T05:37:26.365Z,100861
2018-06-28T05:38:31.808Z,100861
2018-06-28T05:39:37.084Z,100853
2018-06-28T05:40:42.275Z,100870
2018-06-28T05:41:47.172Z,100858
2018-06-28T05:42:52.685Z,100867
2018-06-28T05:43:57.580Z,100858
2018-06-28T05:45:02.488Z,100850
2018-06-28T05:46:08.014Z,100858
2018-06-28T05:47:13.683Z,100850
2018-06-28T05:48:18.846Z,100847
2018-06-28T05:49:24.544Z,100853
2018-06-28T05:50:29.995Z,100859
2018-06-28T05:51:35.614Z,100861
2018-06-28T05:52:40.800Z,100853
2018-06-28T05:53:45.962Z,100861
2018-06-28T05:54:51.097Z,100861
2018-06-28T05:55:55.982Z,100856
2018-06-28T05:57:01.272Z,100844
2018-06-28T05:58:06.683Z,100859
2018-06-28T05:59:11.845Z,100862
2018-06-28T06:00:17.002Z,100859
2018-06-28T06:01:22.186Z,100859
2018-06-28T06:02:27.128Z,100850
2018-06-28T06:03:32.821Z,100853
2018-06-28T06:04:37.247Z,100862
2018-06-28T06:05:42.427Z,100853
2018-06-28T06:06:47.555Z,100859
2018-06-28T06:07:51.588Z,100856
2018-06-28T06:08:56.749Z,100856
2018-06-28T06:10:01.883Z,100865
2018-06-28T06:11:05.920Z,100859
2018-06-28T06:12:11.671Z,100853
2018-06-28T06:13:16.789Z,100859
2018-06-28T06:14:21.667Z,100850
2018-06-28T06:15:27.193Z,100862
2018-06-28T06:16:32.119Z,100853
2018-06-28T06:17:37.282Z,100856
2018-06-28T06:18:42.795Z,100847
2018-06-28T06:19:47.681Z,100850
2018-06-28T06:20:53.123Z,100844
2018-06-28T06:21:58.902Z,100856
2018-06-28T06:23:03.770Z,100836
2018-06-28T06:24:09.217Z,100847
2018-06-28T06:25:14.494Z,100844
2018-06-28T06:26:19.657Z,100856
2018-06-28T06:27:24.824Z,100853
2018-06-28T06:28:31.015Z,100856
2018-06-28T06:29:36.180Z,100853
2018-06-28T06:30:41.655Z,100847
2018-06-28T06:31:46.564Z,100862
2018-06-28T06:32:52.008Z,100853
2018-06-28T06:33:57.564Z,100850
2018-06-28T06:35:02.790Z,100847
2018-06-28T06:36:06.836Z,100853
2018-06-28T06:37:12.289Z,100836
2018-06-28T06:38:17.725Z,100850
2018-06-28T06:39:23.230Z,100859
2018-06-28T06:40:29.035Z,100856
2018-06-28T06:41:34.213Z,100859
2018-06-28T06:42:39.903Z,100859
2018-06-28T06:43:45.347Z,100850
2018-06-28T06:44:50.793Z,100856
2018-06-28T06:45:56.410Z,100850
2018-06-28T06:47:01.534Z,100859
2018-06-28T06:48:06.631Z,100847
2018-06-28T06:49:12.187Z,100856
2018-06-28T06:50:17.635Z,100865
2018-06-28T06:51:22.827Z,100862
2018-06-28T06:52:28.799Z,100847
2018-06-28T06:53:33.994Z,100844
2018-06-28T06:54:39.389Z,100844
2018-06-28T06:55:44.548Z,100850
2018-06-28T06:56:49.986Z,100839
2018-06-28T06:57:55.408Z,100853
2018-06-28T06:59:00.857Z,100844
2018-06-28T07:00:05.454Z,100839
2018-06-28T07:01:10.612Z,100856
2018-06-28T07:02:16.118Z,100850
2018-06-28T07:03:20.769Z,100850
2018-06-28T07:04:26.461Z,100859
2018-06-28T07:05:31.462Z,100844
2018-06-28T07:06:36.886Z,100837
2018-06-28T07:07:42.047Z,100850
2018-06-28T07:08:47.237Z,100850
2018-06-28T07:09:52.933Z,100843
2018-06-28T07:10:58.105Z,100834
2018-06-28T07:12:02.979Z,100837
2018-06-28T07:13:07.993Z,100834
2018-06-28T07:14:13.160Z,100845
2018-06-28T07:15:18.381Z,100843
2018-06-28T07:16:23.429Z,100834
2018-06-28T07:17:28.588Z,100834
2018-06-28T07:18:33.866Z,100845
2018-06-28T07:19:38.753Z,100848
2018-06-28T07:20:43.641Z,100845
2018-06-28T07:21:48.783Z,100843
2018-06-28T07:22:54.527Z,100854
2018-06-28T07:24:00.516Z,100845
2018-06-28T07:25:05.777Z,100834
2018-06-28T07:26:10.923Z,100837
2018-06-28T07:27:16.087Z,100828
2018-06-28T07:28:21.306Z,100845
2018-06-28T07:29:26.057Z,100843
2018-06-28T07:30:31.460Z,100843
2018-06-28T07:31:36.613Z,100837
2018-06-28T07:32:42.051Z,100828
2018-06-28T07:33:47.465Z,100834
2018-06-28T07:34:52.920Z,100831
2018-06-28T07:35:58.090Z,100828
2018-06-28T07:37:03.506Z,100828
2018-06-28T07:38:08.765Z,100837
2018-06-28T07:39:13.940Z,100837
2018-06-28T07:40:19.945Z,100831
2018-06-28T07:41:25.106Z,100843
2018-06-28T07:42:30.873Z,100831
2018-06-28T07:43:36.063Z,100834
2018-06-28T07:44:40.656Z,100828
2018-06-28T07:45:46.395Z,100825
2018-06-28T07:46:51.884Z,100831
2018-06-28T07:47:57.162Z,100847
2018-06-28T07:49:02.820Z,100831
2018-06-28T07:50:06.940Z,100828
2018-06-28T07:51:12.098Z,100825
2018-06-28T07:52:17.218Z,100816
2018-06-28T07:53:22.459Z,100813
2018-06-28T07:54:28.401Z,100819
2018-06-28T07:55:33.562Z,100825
2018-06-28T07:56:39.065Z,100819
2018-06-28T07:57:44.489Z,100819
2018-06-28T07:58:49.936Z,100833
2018-06-28T07:59:55.432Z,100828
2018-06-28T08:01:00.834Z,100834
2018-06-28T08:02:05.427Z,100822
2018-06-28T08:03:10.294Z,100833
2018-06-28T08:04:15.716Z,100825
2018-06-28T08:05:20.714Z,100819
2018-06-28T08:06:26.010Z,100819
2018-06-28T08:07:31.454Z,100822
2018-06-28T08:08:36.332Z,100816
2018-06-28T08:09:42.223Z,100813
2018-06-28T08:10:46.289Z,100819
2018-06-28T08:11:51.454Z,100819
2018-06-28T08:12:57.153Z,100833
2018-06-28T08:14:02.346Z,100819
2018-06-28T08:15:07.515Z,100822
2018-06-28T08:16:12.930Z,100822
2018-06-28T08:17:17.836Z,100822
2018-06-28T08:18:22.434Z,100813
2018-06-28T08:19:28.425Z,100813
2018-06-28T08:20:33.865Z,100807
2018-06-28T08:21:39.116Z,100819
2018-06-28T08:22:43.991Z,100804
2018-06-28T08:23:49.433Z,100816
2018-06-28T08:24:55.333Z,100825
2018-06-28T08:26:00.768Z,100813
2018-06-28T08:27:05.513Z,100808
2018-06-28T08:28:11.270Z,100811
2018-06-28T08:29:16.570Z,100823
2018-06-28T08:30:22.008Z,100817
2018-06-28T08:31:42.087Z,100814
2018-06-28T08:32:46.694Z,100814
2018-06-28T08:33:52.386Z,100808
2018-06-28T08:34:56.968Z,100805
2018-06-28T08:36:01.862Z,100802
2018-06-28T08:37:07.122Z,100808
2018-06-28T08:38:12.557Z,100817
2018-06-28T08:39:17.639Z,100817
2018-06-28T08:40:23.042Z,100823
2018-06-28T08:41:27.912Z,100820
2018-06-28T08:42:32.729Z,100811
2018-06-28T08:43:37.900Z,100820
2018-06-28T08:44:42.943Z,100814
2018-06-28T08:45:48.752Z,100805
2018-06-28T08:46:53.934Z,100814
2018-06-28T08:47:59.016Z,100808
2018-06-28T08:49:04.477Z,100808
2018-06-28T08:50:09.629Z,100814
2018-06-28T08:51:14.790Z,100806
2018-06-28T08:52:20.635Z,100814
2018-06-28T08:53:26.079Z,100808
2018-06-28T08:54:31.479Z,100820
2018-06-28T08:55:36.645Z,100811
2018-06-28T08:56:42.088Z,100808
2018-06-28T08:57:48.135Z,100817
2018-06-28T08:58:54.181Z,100805
2018-06-28T08:59:59.650Z,100814
2018-06-28T09:01:04.236Z,100802
2018-06-28T09:02:09.441Z,100808
2018-06-28T09:03:15.113Z,100808
2018-06-28T09:04:20.259Z,100805
2018-06-28T09:05:25.185Z,100811
2018-06-28T09:06:31.343Z,100805
2018-06-28T09:07:36.835Z,100802
2018-06-28T09:08:42.301Z,100799
2018-06-28T09:09:47.440Z,100789
2018-06-28T09:10:52.607Z,100808
2018-06-28T09:11:58.056Z,100795
2018-06-28T09:13:03.214Z,100803
2018-06-28T09:14:08.659Z,100792
2018-06-28T09:15:13.903Z,100797
2018-06-28T09:16:19.743Z,100805
2018-06-28T09:17:25.183Z,100799
2018-06-28T09:18:30.694Z,100799
2018-06-28T09:19:35.867Z,100802
2018-06-28T09:20:41.342Z,100797
2018-06-28T09:21:46.866Z,100797
2018-06-28T09:22:52.156Z,100789
2018-06-28T09:23:57.938Z,100800
2018-06-28T09:25:02.927Z,100795
2018-06-28T09:26:08.426Z,100802
2018-06-28T09:27:13.581Z,100811
2018-06-28T09:28:18.751Z,100795
2018-06-28T09:29:23.625Z,100799
2018-06-28T09:30:29.837Z,100802
2018-06-28T09:31:34.740Z,100795
2018-06-28T09:32:40.190Z,100795
2018-06-28T09:33:45.809Z,100792
2018-06-28T09:34:51.454Z,100795
2018-06-28T09:35:56.802Z,100795
2018-06-28T09:37:01.696Z,100795
2018-06-28T09:38:06.576Z,100789
2018-06-28T09:39:11.182Z,100802
2018-06-28T09:40:16.499Z,100786
2018-06-28T09:41:21.369Z,100789
2018-06-28T09:42:40.627Z,100774
2018-06-28T09:43:46.402Z,100774
2018-06-28T09:44:51.564Z,100777
2018-06-28T09:45:56.684Z,100786
2018-06-28T09:47:01.584Z,100780
2018-06-28T09:48:06.215Z,100772
2018-06-28T09:49:11.362Z,100772
2018-06-28T09:50:16.798Z,100775
2018-06-28T09:51:21.682Z,100780
2018-06-28T09:52:26.818Z,100783
2018-06-28T09:53:31.975Z,100786
2018-06-28T09:54:37.379Z,100777
2018-06-28T09:55:42.928Z,100786
2018-06-28T09:56:48.515Z,100774
2018-06-28T09:57:53.794Z,100777
2018-06-28T09:58:58.959Z,100768
2018-06-28T10:00:03.857Z,100774
2018-06-28T10:01:09.300Z,100774
2018-06-28T10:02:14.480Z,100763
2018-06-28T10:03:19.946Z,100766
2018-06-28T10:04:25.664Z,100769
2018-06-28T10:05:30.770Z,100766
2018-06-28T10:06:36.208Z,100757
2018-06-28T10:07:41.375Z,100748
2018-06-28T10:08:46.540Z,100751
2018-06-28T10:09:52.133Z,100760
2018-06-28T10:10:56.758Z,100757
2018-06-28T10:12:01.647Z,100751
2018-06-28T10:13:06.775Z,100757
2018-06-28T10:14:11.138Z,100754
2018-06-28T10:15:16.018Z,100763
2018-06-28T10:16:21.529Z,100763
2018-06-28T10:17:26.701Z,100766
2018-06-28T10:18:32.120Z,100766
2018-06-28T10:19:37.501Z,100754
2018-06-28T10:20:42.678Z,100766
2018-06-28T10:21:48.373Z,100760
2018-06-28T10:22:53.827Z,100754
2018-06-28T10:23:58.733Z,100743
2018-06-28T10:25:04.246Z,100760
2018-06-28T10:26:09.363Z,100763
2018-06-28T10:27:14.544Z,100754
2018-06-28T10:28:20.262Z,100754
2018-06-28T10:29:25.448Z,100748
2018-06-28T10:30:30.765Z,100748
2018-06-28T10:31:35.932Z,100742
2018-06-28T10:32:40.599Z,100748
2018-06-28T10:33:45.923Z,100757
2018-06-28T10:34:51.117Z,100748
2018-06-28T10:35:56.555Z,100745
2018-06-28T10:37:01.968Z,100746
2018-06-28T10:38:06.567Z,100749
2018-06-28T10:39:11.473Z,100751
2018-06-28T10:40:17.001Z,100748
2018-06-28T10:41:22.961Z,100746
2018-06-28T10:42:27.812Z,100737
2018-06-28T10:43:32.970Z,100746
2018-06-28T10:44:37.593Z,100737
2018-06-28T10:45:43.101Z,100740
2018-06-28T10:46:47.985Z,100740
2018-06-28T10:47:52.866Z,100734
2018-06-28T10:48:58.657Z,100734
2018-06-28T10:50:03.736Z,100737
2018-06-28T10:51:08.912Z,100719
2018-06-28T10:52:14.482Z,100728
2018-06-28T10:53:19.940Z,100719
2018-06-28T10:54:24.538Z,100716
2018-06-28T10:55:44.719Z,100719
2018-06-28T10:56:49.867Z,100725
2018-06-28T10:57:55.569Z,100728
2018-06-28T10:59:00.735Z,100728
2018-06-28T11:00:05.352Z,100734
2018-06-28T11:01:10.582Z,100731
2018-06-28T11:02:15.460Z,100711
2018-06-28T11:03:20.907Z,100716
2018-06-28T11:04:25.796Z,100714
2018-06-28T11:05:30.130Z,100702
2018-06-28T11:06:35.924Z,100693
2018-06-28T11:07:41.684Z,100685
2018-06-28T11:08:46.565Z,100696
2018-06-28T11:09:51.473Z,100699
2018-06-28T11:10:56.614Z,100693
2018-06-28T11:12:01.776Z,100702
2018-06-28T11:13:06.213Z,100705
2018-06-28T11:14:11.363Z,100696
2018-06-28T11:15:16.746Z,100685
2018-06-28T11:16:22.322Z,100685
2018-06-28T11:17:27.778Z,100702
2018-06-28T11:18:33.309Z,100690
2018-06-28T11:19:38.279Z,100696
2018-06-28T11:20:44.046Z,100699
2018-06-28T11:21:49.864Z,100693
2018-06-28T11:22:54.743Z,100696
2018-06-28T11:23:59.924Z,100685
2018-06-28T11:25:05.627Z,100685
2018-06-28T11:26:10.626Z,100690
2018-06-28T11:27:15.812Z,100696
2018-06-28T11:28:21.650Z,100685
2018-06-28T11:29:27.277Z,100687
2018-06-28T11:30:33.038Z,100690
2018-06-28T11:31:38.516Z,100693
2018-06-28T11:32:43.678Z,100688
2018-06-28T11:33:49.094Z,100688
2018-06-28T11:34:54.310Z,100679
2018-06-28T11:35:59.401Z,100682
2018-06-28T11:37:04.856Z,100676
2018-06-28T11:38:10.022Z,100670
2018-06-28T11:39:14.962Z,100664
2018-06-28T11:40:19.833Z,100682
2018-06-28T11:41:24.989Z,100676
2018-06-28T11:42:30.838Z,100673
2018-06-28T11:43:35.451Z,100673
2018-06-28T11:44:40.527Z,100673
2018-06-28T11:45:46.222Z,100670
2018-06-28T11:46:51.677Z,100670
2018-06-28T11:47:57.145Z,100664
2018-06-28T11:49:02.266Z,100664
2018-06-28T11:50:06.889Z,100673
2018-06-28T11:51:12.107Z,100673
2018-06-28T11:52:18.049Z,100673
2018-06-28T11:53:22.804Z,100673
2018-06-28T11:54:28.313Z,100670
2018-06-28T11:55:33.490Z,100662
2018-06-28T11:56:38.650Z,100676
2018-06-28T11:57:44.057Z,100656
2018-06-28T11:58:48.939Z,100664
2018-06-28T11:59:54.093Z,100659
2018-06-28T12:00:59.791Z,100665
2018-06-28T12:02:04.965Z,100659
2018-06-28T12:03:09.550Z,100656
2018-06-28T12:04:15.017Z,100651
2018-06-28T12:05:20.677Z,100654
2018-06-28T12:06:27.164Z,100662
2018-06-28T12:07:32.601Z,100665
2018-06-28T12:08:38.061Z,100648
2018-06-28T12:09:43.292Z,100651
2018-06-28T12:10:48.740Z,100662
2018-06-28T12:11:53.603Z,100651
2018-06-28T12:12:59.462Z,100654
2018-06-28T12:14:04.908Z,100656
2018-06-28T12:15:10.365Z,100642
2018-06-28T12:16:16.187Z,100665
2018-06-28T12:17:21.347Z,100668
2018-06-28T12:18:41.443Z,100654
2018-06-28T12:19:46.908Z,100651
2018-06-28T12:20:52.073Z,100659
2018-06-28T12:21:57.761Z,100651
2018-06-28T12:23:02.941Z,100648
2018-06-28T12:24:07.828Z,100640
2018-06-28T12:25:13.621Z,100648
2018-06-28T12:26:18.489Z,100637
2018-06-28T12:27:23.360Z,100645
2018-06-28T12:28:29.292Z,100642
2018-06-28T12:29:34.746Z,100634
2018-06-28T12:30:39.878Z,100637
2018-06-28T12:31:45.332Z,100645
2018-06-28T12:32:50.267Z,100640
2018-06-28T12:33:55.676Z,100645
2018-06-28T12:35:01.135Z,100645
2018-06-28T12:36:06.304Z,100631
2018-06-28T12:37:11.531Z,100640
2018-06-28T12:38:16.152Z,100619
2018-06-28T12:39:21.446Z,100622
2018-06-28T12:40:27.151Z,100622
2018-06-28T12:41:32.616Z,100619
2018-06-28T12:42:38.326Z,100602
2018-06-28T12:43:43.768Z,100605
2018-06-28T12:44:48.926Z,100608
2018-06-28T12:45:54.545Z,100608
2018-06-28T12:46:59.997Z,100611
2018-06-28T12:48:04.891Z,100608
2018-06-28T12:49:10.321Z,100608
2018-06-28T12:50:15.232Z,100614
2018-06-28T12:51:20.156Z,100605
2018-06-28T12:52:25.343Z,100611
2018-06-28T12:53:30.508Z,100602
2018-06-28T12:54:35.651Z,100596
2018-06-28T12:55:41.100Z,100590
2018-06-28T12:56:46.555Z,100596
2018-06-28T12:57:52.444Z,100599
2018-06-28T12:58:57.892Z,100599
2018-06-28T13:00:02.871Z,100605
2018-06-28T13:01:08.081Z,100602
2018-06-28T13:02:12.406Z,100605
2018-06-28T13:03:17.855Z,100602
2018-06-28T13:04:23.103Z,100602
2018-06-28T13:05:27.982Z,100583
2018-06-28T13:06:33.396Z,100605
2018-06-28T13:07:38.016Z,100599
2018-06-28T13:08:43.462Z,100580
2018-06-28T13:09:48.976Z,100588
2018-06-28T13:10:54.149Z,100574
2018-06-28T13:11:59.669Z,100583
2018-06-28T13:13:05.414Z,100571
2018-06-28T13:14:10.458Z,100571
2018-06-28T13:15:15.919Z,100571
2018-06-28T13:16:21.373Z,100572
2018-06-28T13:17:26.861Z,100551
2018-06-28T13:18:32.508Z,100569
2018-06-28T13:19:37.699Z,100577
2018-06-28T13:20:43.135Z,100583
2018-06-28T13:21:48.567Z,100577
2018-06-28T13:22:54.025Z,100580
2018-06-28T13:23:58.899Z,100577
2018-06-28T13:25:03.736Z,100591
2018-06-28T13:26:08.820Z,100578
2018-06-28T13:27:13.999Z,100572
2018-06-28T13:28:19.679Z,100575
2018-06-28T13:29:24.864Z,100569
2018-06-28T13:30:30.150Z,100581
2018-06-28T13:31:34.825Z,100572
2018-06-28T13:32:39.184Z,100563
2018-06-28T13:33:44.429Z,100572
2018-06-28T13:34:50.305Z,100575
2018-06-28T13:35:55.458Z,100572